sensor_id;sensor_type;location;lat;lon;timestamp;P1;durP1;ratioP1;P2;durP2;ratioP2
38318;SDS011;24121;53.536;10.224;2023-05-10T07:12:35;4.10;;;3.70;;
38318;SDS011;24121;53.536;10.224;2023-05-10T07:15:01;6.13;;;4.13;;
38318;SDS011;24121;53.536;10.224;2023-05-10T07:17:26;6.03;;;4.20;;
38318;SDS011;24121;53.536;10.224;2023-05-10T07:19:51;6.72;;;4.57;;
38318;SDS011;24121;53.536;10.224;2023-05-10T07:22:17;7.63;;;4.10;;
38318;SDS011;24121;53.536;10.224;2023-05-10T07:24:42;5.35;;;4.07;;
38318;SDS011;24121;53.536;10.224;2023-05-10T07:27:08;5.50;;;3.50;;
38318;SDS011;24121;53.536;10.224;2023-05-10T07:29:34;5.93;;;4.00;;
38318;SDS011;24121;53.536;10.224;2023-05-10T07:32:00;5.93;;;4.22;;
38318;SDS011;24121;53.536;10.224;2023-05-10T07:34:26;4.32;;;3.92;;
38318;SDS011;24121;53.536;10.224;2023-05-10T07:36:51;7.15;;;3.90;;
38318;SDS011;24121;53.536;10.224;2023-05-10T07:39:17;4.43;;;3.78;;
38318;SDS011;24121;53.536;10.224;2023-05-10T07:41:42;5.22;;;3.70;;
38318;SDS011;24121;53.536;10.224;2023-05-10T07:44:07;5.70;;;4.10;;
38318;SDS011;24121;53.536;10.224;2023-05-10T07:46:33;6.78;;;3.72;;
38318;SDS011;24121;53.536;10.224;2023-05-10T07:48:58;6.88;;;3.90;;
38318;SDS011;24121;53.536;10.224;2023-05-10T07:51:23;6.97;;;4.35;;
38318;SDS011;24121;53.536;10.224;2023-05-10T07:53:48;6.63;;;4.05;;
38318;SDS011;24121;53.536;10.224;2023-05-10T07:56:21;4.85;;;4.07;;
38318;SDS011;24121;53.536;10.224;2023-05-10T07:59:01;7.03;;;3.90;;
38318;SDS011;24121;53.536;10.224;2023-05-10T08:01:30;5.25;;;3.85;;
38318;SDS011;24121;53.536;10.224;2023-05-10T08:03:56;6.45;;;3.88;;
38318;SDS011;24121;53.536;10.224;2023-05-10T08:06:21;9.23;;;3.85;;
38318;SDS011;24121;53.536;10.224;2023-05-10T08:08:47;5.75;;;3.40;;
38318;SDS011;24121;53.536;10.224;2023-05-10T08:11:16;5.37;;;3.90;;
38318;SDS011;24121;53.536;10.224;2023-05-10T08:13:42;7.25;;;3.85;;
38318;SDS011;24121;53.536;10.224;2023-05-10T08:16:07;5.38;;;4.03;;
38318;SDS011;24121;53.536;10.224;2023-05-10T08:18:33;7.50;;;3.85;;
38318;SDS011;24121;53.536;10.224;2023-05-10T08:20:58;4.38;;;3.78;;
38318;SDS011;24121;53.536;10.224;2023-05-10T08:23:23;4.97;;;4.18;;
38318;SDS011;24121;53.536;10.224;2023-05-10T08:25:49;5.70;;;4.13;;
38318;SDS011;24121;53.536;10.224;2023-05-10T08:28:14;5.93;;;4.75;;
38318;SDS011;24121;53.536;10.224;2023-05-10T08:30:39;8.23;;;4.10;;
38318;SDS011;24121;53.536;10.224;2023-05-10T08:33:05;4.30;;;3.90;;
38318;SDS011;24121;53.536;10.224;2023-05-10T08:35:30;6.00;;;4.05;;
38318;SDS011;24121;53.536;10.224;2023-05-10T08:37:56;7.38;;;4.25;;
38318;SDS011;24121;53.536;10.224;2023-05-10T08:40:21;4.95;;;4.10;;
38318;SDS011;24121;53.536;10.224;2023-05-10T08:42:57;5.68;;;3.85;;
38318;SDS011;24121;53.536;10.224;2023-05-10T08:45:32;5.68;;;4.07;;
38318;SDS011;24121;53.536;10.224;2023-05-10T08:48:01;7.43;;;3.75;;
38318;SDS011;24121;53.536;10.224;2023-05-10T08:50:27;9.95;;;4.10;;
38318;SDS011;24121;53.536;10.224;2023-05-10T08:52:53;5.22;;;3.47;;
38318;SDS011;24121;53.536;10.224;2023-05-10T08:55:20;5.00;;;3.95;;
38318;SDS011;24121;53.536;10.224;2023-05-10T08:57:48;6.50;;;4.03;;
38318;SDS011;24121;53.536;10.224;2023-05-10T09:00:13;4.65;;;3.83;;
38318;SDS011;24121;53.536;10.224;2023-05-10T09:02:39;9.52;;;4.43;;
38318;SDS011;24121;53.536;10.224;2023-05-10T09:05:05;7.28;;;4.10;;
38318;SDS011;24121;53.536;10.224;2023-05-10T09:07:30;5.22;;;4.18;;
38318;SDS011;24121;53.536;10.224;2023-05-10T09:09:56;6.60;;;3.92;;
38318;SDS011;24121;53.536;10.224;2023-05-10T09:12:22;7.40;;;4.20;;
38318;SDS011;24121;53.536;10.224;2023-05-10T09:14:48;7.63;;;4.30;;
38318;SDS011;24121;53.536;10.224;2023-05-10T09:17:14;5.53;;;4.47;;
38318;SDS011;24121;53.536;10.224;2023-05-10T09:19:40;7.35;;;4.50;;
38318;SDS011;24121;53.536;10.224;2023-05-10T09:22:05;4.93;;;3.92;;
38318;SDS011;24121;53.536;10.224;2023-05-10T09:24:30;7.57;;;4.80;;
38318;SDS011;24121;53.536;10.224;2023-05-10T09:26:56;5.90;;;4.10;;
38318;SDS011;24121;53.536;10.224;2023-05-10T09:29:22;7.60;;;4.57;;
38318;SDS011;24121;53.536;10.224;2023-05-10T09:31:49;4.75;;;4.25;;
38318;SDS011;24121;53.536;10.224;2023-05-10T09:34:20;6.90;;;4.15;;
38318;SDS011;24121;53.536;10.224;2023-05-10T09:36:59;6.45;;;4.68;;
38318;SDS011;24121;53.536;10.224;2023-05-10T09:39:30;6.15;;;4.28;;
38318;SDS011;24121;53.536;10.224;2023-05-10T09:41:57;6.03;;;4.30;;
38318;SDS011;24121;53.536;10.224;2023-05-10T09:44:23;5.38;;;4.25;;
38318;SDS011;24121;53.536;10.224;2023-05-10T09:46:50;6.55;;;4.63;;
38318;SDS011;24121;53.536;10.224;2023-05-10T09:49:17;5.22;;;4.70;;
38318;SDS011;24121;53.536;10.224;2023-05-10T09:51:43;8.13;;;4.70;;
38318;SDS011;24121;53.536;10.224;2023-05-10T09:54:09;7.22;;;4.80;;
38318;SDS011;24121;53.536;10.224;2023-05-10T09:56:38;6.05;;;4.40;;
38318;SDS011;24121;53.536;10.224;2023-05-10T09:59:05;6.97;;;5.07;;
38318;SDS011;24121;53.536;10.224;2023-05-10T10:01:33;5.72;;;4.15;;
38318;SDS011;24121;53.536;10.224;2023-05-10T10:03:58;6.78;;;4.85;;
38318;SDS011;24121;53.536;10.224;2023-05-10T10:06:24;5.50;;;4.55;;
38318;SDS011;24121;53.536;10.224;2023-05-10T10:08:50;6.97;;;4.97;;
38318;SDS011;24121;53.536;10.224;2023-05-10T10:11:16;6.68;;;4.85;;
38318;SDS011;24121;53.536;10.224;2023-05-10T10:13:41;6.75;;;4.85;;
38318;SDS011;24121;53.536;10.224;2023-05-10T10:16:07;7.55;;;5.65;;
38318;SDS011;24121;53.536;10.224;2023-05-10T10:18:33;5.10;;;4.60;;
38318;SDS011;24121;53.536;10.224;2023-05-10T10:20:58;5.82;;;4.80;;
38318;SDS011;24121;53.536;10.224;2023-05-10T10:23:24;6.53;;;5.40;;
38318;SDS011;24121;53.536;10.224;2023-05-10T10:25:50;5.75;;;5.15;;
38318;SDS011;24121;53.536;10.224;2023-05-10T10:28:27;6.80;;;5.30;;
38318;SDS011;24121;53.536;10.224;2023-05-10T10:36:44;10.77;;;7.15;;
38318;SDS011;24121;53.536;10.224;2023-05-10T10:39:11;8.70;;;7.78;;
38318;SDS011;24121;53.536;10.224;2023-05-10T10:41:39;10.68;;;8.18;;
38318;SDS011;24121;53.536;10.224;2023-05-10T10:49:50;8.98;;;8.07;;
38318;SDS011;24121;53.536;10.224;2023-05-10T10:57:54;11.30;;;10.10;;
38318;SDS011;24121;53.536;10.224;2023-05-10T11:00:26;12.07;;;10.73;;
38318;SDS011;24121;53.536;10.224;2023-05-10T11:02:59;10.63;;;8.52;;
38318;SDS011;24121;53.536;10.224;2023-05-10T11:07:58;9.48;;;8.48;;
38318;SDS011;24121;53.536;10.224;2023-05-10T11:10:24;12.18;;;10.60;;
38318;SDS011;24121;53.536;10.224;2023-05-10T11:13:09;11.48;;;10.02;;
38318;SDS011;24121;53.536;10.224;2023-05-10T11:15:35;12.25;;;10.88;;
38318;SDS011;24121;53.536;10.224;2023-05-10T11:18:18;13.35;;;10.43;;
38318;SDS011;24121;53.536;10.224;2023-05-10T11:20:49;11.25;;;10.15;;
38318;SDS011;24121;53.536;10.224;2023-05-10T11:23:16;11.43;;;10.23;;
38318;SDS011;24121;53.536;10.224;2023-05-10T11:25:43;12.35;;;11.15;;
38318;SDS011;24121;53.536;10.224;2023-05-10T11:28:09;12.90;;;11.10;;
38318;SDS011;24121;53.536;10.224;2023-05-10T11:30:35;11.95;;;10.85;;
38318;SDS011;24121;53.536;10.224;2023-05-10T11:33:01;11.00;;;9.60;;
38318;SDS011;24121;53.536;10.224;2023-05-10T11:35:27;13.48;;;11.20;;
38318;SDS011;24121;53.536;10.224;2023-05-10T11:37:52;14.18;;;11.07;;
38318;SDS011;24121;53.536;10.224;2023-05-10T11:40:18;10.70;;;9.57;;
38318;SDS011;24121;53.536;10.224;2023-05-10T11:42:44;13.25;;;10.77;;
38318;SDS011;24121;53.536;10.224;2023-05-10T11:45:10;11.43;;;10.35;;
38318;SDS011;24121;53.536;10.224;2023-05-10T11:47:35;12.15;;;10.93;;
38318;SDS011;24121;53.536;10.224;2023-05-10T11:50:01;12.70;;;11.40;;
38318;SDS011;24121;53.536;10.224;2023-05-10T11:52:27;11.10;;;10.02;;
38318;SDS011;24121;53.536;10.224;2023-05-10T11:54:54;12.23;;;10.98;;
38318;SDS011;24121;53.536;10.224;2023-05-10T11:57:20;12.88;;;11.68;;
38318;SDS011;24121;53.536;10.224;2023-05-10T11:59:46;12.80;;;11.25;;
38318;SDS011;24121;53.536;10.224;2023-05-10T12:02:13;11.07;;;9.88;;
38318;SDS011;24121;53.536;10.224;2023-05-10T12:04:38;9.95;;;8.90;;
38318;SDS011;24121;53.536;10.224;2023-05-10T12:07:04;11.13;;;10.02;;
38318;SDS011;24121;53.536;10.224;2023-05-10T12:09:29;13.82;;;12.50;;
38318;SDS011;24121;53.536;10.224;2023-05-10T12:11:55;12.85;;;11.52;;
38318;SDS011;24121;53.536;10.224;2023-05-10T12:14:21;12.98;;;10.70;;
38318;SDS011;24121;53.536;10.224;2023-05-10T12:16:47;13.63;;;12.23;;
38318;SDS011;24121;53.536;10.224;2023-05-10T12:19:12;12.90;;;11.45;;
38318;SDS011;24121;53.536;10.224;2023-05-10T12:21:43;11.68;;;10.48;;
38318;SDS011;24121;53.536;10.224;2023-05-10T12:24:09;11.45;;;10.35;;
38318;SDS011;24121;53.536;10.224;2023-05-10T12:26:35;12.70;;;11.48;;
38318;SDS011;24121;53.536;10.224;2023-05-10T12:29:17;13.27;;;10.93;;
38318;SDS011;24121;53.536;10.224;2023-05-10T12:31:52;11.95;;;10.73;;
38318;SDS011;24121;53.536;10.224;2023-05-10T12:34:22;12.38;;;11.07;;
38318;SDS011;24121;53.536;10.224;2023-05-10T12:36:52;13.35;;;11.63;;
38318;SDS011;24121;53.536;10.224;2023-05-10T12:39:17;13.80;;;12.40;;
38318;SDS011;24121;53.536;10.224;2023-05-10T12:41:43;13.73;;;12.32;;
38318;SDS011;24121;53.536;10.224;2023-05-10T12:44:08;15.07;;;13.27;;
38318;SDS011;24121;53.536;10.224;2023-05-10T12:46:33;14.93;;;13.50;;
38318;SDS011;24121;53.536;10.224;2023-05-10T12:48:58;16.30;;;12.63;;
38318;SDS011;24121;53.536;10.224;2023-05-10T12:51:24;16.60;;;14.25;;
38318;SDS011;24121;53.536;10.224;2023-05-10T12:53:49;11.95;;;10.75;;
38318;SDS011;24121;53.536;10.224;2023-05-10T12:56:14;13.95;;;12.02;;
38318;SDS011;24121;53.536;10.224;2023-05-10T12:58:40;14.07;;;11.80;;
38318;SDS011;24121;53.536;10.224;2023-05-10T13:01:05;15.07;;;12.40;;
38318;SDS011;24121;53.536;10.224;2023-05-10T13:03:31;15.38;;;10.27;;
38318;SDS011;24121;53.536;10.224;2023-05-10T13:05:56;10.48;;;9.48;;
38318;SDS011;24121;53.536;10.224;2023-05-10T13:08:22;10.43;;;9.52;;
38318;SDS011;24121;53.536;10.224;2023-05-10T13:10:47;10.82;;;9.82;;
38318;SDS011;24121;53.536;10.224;2023-05-10T13:13:12;10.98;;;9.95;;
38318;SDS011;24121;53.536;10.224;2023-05-10T13:15:38;12.80;;;11.50;;
38318;SDS011;24121;53.536;10.224;2023-05-10T13:18:03;10.57;;;9.43;;
38318;SDS011;24121;53.536;10.224;2023-05-10T13:20:28;8.80;;;8.00;;
38318;SDS011;24121;53.536;10.224;2023-05-10T13:22:54;7.90;;;7.18;;
38318;SDS011;24121;53.536;10.224;2023-05-10T13:25:19;11.23;;;8.90;;
38318;SDS011;24121;53.536;10.224;2023-05-10T13:27:44;9.82;;;8.70;;
38318;SDS011;24121;53.536;10.224;2023-05-10T13:30:10;9.23;;;8.20;;
38318;SDS011;24121;53.536;10.224;2023-05-10T13:32:36;8.27;;;7.47;;
38318;SDS011;24121;53.536;10.224;2023-05-10T13:35:01;9.43;;;8.30;;
38318;SDS011;24121;53.536;10.224;2023-05-10T13:37:28;7.65;;;6.97;;
38318;SDS011;24121;53.536;10.224;2023-05-10T13:39:54;6.70;;;6.07;;
38318;SDS011;24121;53.536;10.224;2023-05-10T13:42:19;9.27;;;7.50;;
38318;SDS011;24121;53.536;10.224;2023-05-10T13:44:45;8.80;;;7.90;;
38318;SDS011;24121;53.536;10.224;2023-05-10T13:47:10;10.52;;;9.43;;
38318;SDS011;24121;53.536;10.224;2023-05-10T13:49:36;9.20;;;8.40;;
38318;SDS011;24121;53.536;10.224;2023-05-10T13:52:01;8.30;;;7.50;;
38318;SDS011;24121;53.536;10.224;2023-05-10T13:54:32;8.18;;;7.38;;
38318;SDS011;24121;53.536;10.224;2023-05-10T13:57:00;7.40;;;6.80;;
38318;SDS011;24121;53.536;10.224;2023-05-10T13:59:26;7.50;;;6.80;;
38318;SDS011;24121;53.536;10.224;2023-05-10T14:01:51;6.75;;;6.15;;
38318;SDS011;24121;53.536;10.224;2023-05-10T14:04:16;6.53;;;6.03;;
38318;SDS011;24121;53.536;10.224;2023-05-10T14:06:42;6.53;;;5.93;;
38318;SDS011;24121;53.536;10.224;2023-05-10T14:09:07;7.38;;;6.68;;
38318;SDS011;24121;53.536;10.224;2023-05-10T14:11:32;8.43;;;7.63;;
38318;SDS011;24121;53.536;10.224;2023-05-10T14:13:58;8.43;;;7.53;;
38318;SDS011;24121;53.536;10.224;2023-05-10T14:16:23;8.18;;;6.00;;
38318;SDS011;24121;53.536;10.224;2023-05-10T14:18:48;5.72;;;5.13;;
38318;SDS011;24121;53.536;10.224;2023-05-10T14:21:14;6.28;;;5.68;;
38318;SDS011;24121;53.536;10.224;2023-05-10T14:23:40;6.38;;;5.55;;
38318;SDS011;24121;53.536;10.224;2023-05-10T14:26:05;4.95;;;4.55;;
38318;SDS011;24121;53.536;10.224;2023-05-10T14:28:31;5.82;;;5.32;;
38318;SDS011;24121;53.536;10.224;2023-05-10T14:30:56;6.43;;;5.75;;
38318;SDS011;24121;53.536;10.224;2023-05-10T14:33:22;6.22;;;5.72;;
38318;SDS011;24121;53.536;10.224;2023-05-10T14:35:48;7.18;;;6.47;;
38318;SDS011;24121;53.536;10.224;2023-05-10T14:38:13;7.20;;;6.50;;
38318;SDS011;24121;53.536;10.224;2023-05-10T14:40:39;7.32;;;6.38;;
38318;SDS011;24121;53.536;10.224;2023-05-10T14:43:04;7.18;;;6.55;;
38318;SDS011;24121;53.536;10.224;2023-05-10T14:45:30;8.15;;;7.45;;
38318;SDS011;24121;53.536;10.224;2023-05-10T14:47:56;8.35;;;7.65;;
38318;SDS011;24121;53.536;10.224;2023-05-10T14:50:22;7.90;;;7.25;;
38318;SDS011;24121;53.536;10.224;2023-05-10T14:52:47;7.93;;;7.20;;
38318;SDS011;24121;53.536;10.224;2023-05-10T14:55:12;6.60;;;5.97;;
38318;SDS011;24121;53.536;10.224;2023-05-10T14:57:38;7.10;;;6.40;;
38318;SDS011;24121;53.536;10.224;2023-05-10T15:00:03;7.40;;;6.68;;
38318;SDS011;24121;53.536;10.224;2023-05-10T15:02:30;7.70;;;6.90;;
38318;SDS011;24121;53.536;10.224;2023-05-10T15:04:56;9.30;;;7.53;;
38318;SDS011;24121;53.536;10.224;2023-05-10T15:07:22;8.23;;;7.50;;
38318;SDS011;24121;53.536;10.224;2023-05-10T15:09:47;7.88;;;7.15;;
38318;SDS011;24121;53.536;10.224;2023-05-10T15:12:13;6.97;;;6.38;;
38318;SDS011;24121;53.536;10.224;2023-05-10T15:14:38;8.25;;;7.45;;
38318;SDS011;24121;53.536;10.224;2023-05-10T15:17:05;7.00;;;6.40;;
38318;SDS011;24121;53.536;10.224;2023-05-10T15:19:31;8.65;;;7.85;;
38318;SDS011;24121;53.536;10.224;2023-05-10T15:21:58;8.48;;;7.68;;
38318;SDS011;24121;53.536;10.224;2023-05-10T15:24:23;8.52;;;6.85;;
38318;SDS011;24121;53.536;10.224;2023-05-10T15:26:49;8.00;;;6.95;;
38318;SDS011;24121;53.536;10.224;2023-05-10T15:29:14;7.47;;;6.78;;
38318;SDS011;24121;53.536;10.224;2023-05-10T15:31:44;7.32;;;6.63;;
38318;SDS011;24121;53.536;10.224;2023-05-10T15:34:14;7.28;;;6.57;;
38318;SDS011;24121;53.536;10.224;2023-05-10T15:36:39;7.70;;;6.85;;
38318;SDS011;24121;53.536;10.224;2023-05-10T15:39:04;6.82;;;6.22;;
38318;SDS011;24121;53.536;10.224;2023-05-10T15:41:30;6.70;;;6.10;;
38318;SDS011;24121;53.536;10.224;2023-05-10T15:43:55;7.22;;;6.25;;
38318;SDS011;24121;53.536;10.224;2023-05-10T15:46:21;6.80;;;6.10;;
38318;SDS011;24121;53.536;10.224;2023-05-10T15:48:46;6.85;;;6.15;;
38318;SDS011;24121;53.536;10.224;2023-05-10T15:51:11;6.28;;;5.68;;
38318;SDS011;24121;53.536;10.224;2023-05-10T15:53:37;6.38;;;5.78;;
38318;SDS011;24121;53.536;10.224;2023-05-10T15:56:02;6.63;;;6.03;;
38318;SDS011;24121;53.536;10.224;2023-05-10T15:58:28;6.70;;;5.97;;
38318;SDS011;24121;53.536;10.224;2023-05-10T16:00:53;6.38;;;5.78;;
38318;SDS011;24121;53.536;10.224;2023-05-10T16:03:18;5.82;;;5.32;;
38318;SDS011;24121;53.536;10.224;2023-05-10T16:05:44;6.38;;;5.78;;
38318;SDS011;24121;53.536;10.224;2023-05-10T16:08:09;6.20;;;5.53;;
38318;SDS011;24121;53.536;10.224;2023-05-10T16:10:34;5.70;;;5.20;;
38318;SDS011;24121;53.536;10.224;2023-05-10T16:13:00;5.90;;;5.40;;
38318;SDS011;24121;53.536;10.224;2023-05-10T16:15:27;6.20;;;5.60;;
38318;SDS011;24121;53.536;10.224;2023-05-10T16:17:52;6.70;;;6.00;;
38318;SDS011;24121;53.536;10.224;2023-05-10T16:20:18;5.40;;;4.90;;
38318;SDS011;24121;53.536;10.224;2023-05-10T16:22:43;7.22;;;6.22;;
38318;SDS011;24121;53.536;10.224;2023-05-10T16:25:09;6.28;;;5.78;;
38318;SDS011;24121;53.536;10.224;2023-05-10T16:27:34;7.20;;;6.50;;
38318;SDS011;24121;53.536;10.224;2023-05-10T16:30:00;5.88;;;5.32;;
38318;SDS011;24121;53.536;10.224;2023-05-10T16:32:25;6.18;;;5.57;;
38318;SDS011;24121;53.536;10.224;2023-05-10T16:34:51;7.78;;;6.47;;
38318;SDS011;24121;53.536;10.224;2023-05-10T16:37:17;7.30;;;6.70;;
38318;SDS011;24121;53.536;10.224;2023-05-10T16:39:42;6.53;;;5.93;;
38318;SDS011;24121;53.536;10.224;2023-05-10T16:42:08;7.10;;;6.40;;
38318;SDS011;24121;53.536;10.224;2023-05-10T16:44:33;7.32;;;5.72;;
38318;SDS011;24121;53.536;10.224;2023-05-10T16:46:58;6.18;;;5.57;;
38318;SDS011;24121;53.536;10.224;2023-05-10T16:49:24;6.35;;;5.75;;
38318;SDS011;24121;53.536;10.224;2023-05-10T16:51:50;6.28;;;5.68;;
38318;SDS011;24121;53.536;10.224;2023-05-10T16:54:15;6.57;;;5.97;;
38318;SDS011;24121;53.536;10.224;2023-05-10T16:56:41;5.32;;;4.75;;
38318;SDS011;24121;53.536;10.224;2023-05-10T16:59:06;4.88;;;4.45;;
38318;SDS011;24121;53.536;10.224;2023-05-10T17:01:32;4.50;;;4.10;;
38318;SDS011;24121;53.536;10.224;2023-05-10T17:03:57;5.10;;;3.85;;
38318;SDS011;24121;53.536;10.224;2023-05-10T17:06:23;4.38;;;3.65;;
38318;SDS011;24121;53.536;10.224;2023-05-10T17:08:48;4.80;;;3.85;;
38318;SDS011;24121;53.536;10.224;2023-05-10T17:11:13;4.93;;;3.65;;
38318;SDS011;24121;53.536;10.224;2023-05-10T17:13:39;4.20;;;3.67;;
38318;SDS011;24121;53.536;10.224;2023-05-10T17:16:04;4.10;;;3.65;;
38318;SDS011;24121;53.536;10.224;2023-05-10T17:18:29;6.93;;;6.32;;
38318;SDS011;24121;53.536;10.224;2023-05-10T17:20:55;6.35;;;5.75;;
38318;SDS011;24121;53.536;10.224;2023-05-10T17:23:20;9.38;;;8.48;;
38318;SDS011;24121;53.536;10.224;2023-05-10T17:25:45;24.92;;;22.30;;
38318;SDS011;24121;53.536;10.224;2023-05-10T17:28:11;21.52;;;19.63;;
38318;SDS011;24121;53.536;10.224;2023-05-10T17:30:36;17.73;;;16.00;;
38318;SDS011;24121;53.536;10.224;2023-05-10T17:33:02;13.95;;;12.60;;
38318;SDS011;24121;53.536;10.224;2023-05-10T17:35:28;10.73;;;9.68;;
38318;SDS011;24121;53.536;10.224;2023-05-10T17:37:55;8.07;;;7.25;;
38318;SDS011;24121;53.536;10.224;2023-05-10T17:40:20;7.78;;;6.97;;
38318;SDS011;24121;53.536;10.224;2023-05-10T17:42:46;7.35;;;6.00;;
38318;SDS011;24121;53.536;10.224;2023-05-10T17:45:11;6.80;;;6.10;;
38318;SDS011;24121;53.536;10.224;2023-05-10T17:47:36;6.45;;;5.88;;
38318;SDS011;24121;53.536;10.224;2023-05-10T17:50:02;5.20;;;4.63;;
38318;SDS011;24121;53.536;10.224;2023-05-10T17:52:28;5.68;;;4.30;;
38318;SDS011;24121;53.536;10.224;2023-05-10T17:54:53;4.68;;;3.92;;
38318;SDS011;24121;53.536;10.224;2023-05-10T17:57:18;3.42;;;3.13;;
38318;SDS011;24121;53.536;10.224;2023-05-10T17:59:44;3.40;;;2.40;;
38318;SDS011;24121;53.536;10.224;2023-05-10T18:02:10;3.03;;;2.72;;
38318;SDS011;24121;53.536;10.224;2023-05-10T18:04:35;2.58;;;2.38;;
38318;SDS011;24121;53.536;10.224;2023-05-10T18:07:03;2.85;;;2.65;;
38318;SDS011;24121;53.536;10.224;2023-05-10T18:09:28;2.60;;;2.40;;
38318;SDS011;24121;53.536;10.224;2023-05-10T18:11:54;3.20;;;2.90;;
38318;SDS011;24121;53.536;10.224;2023-05-10T18:14:19;3.90;;;3.05;;
38318;SDS011;24121;53.536;10.224;2023-05-10T18:16:46;3.67;;;3.28;;
38318;SDS011;24121;53.536;10.224;2023-05-10T18:19:12;6.15;;;4.13;;
38318;SDS011;24121;53.536;10.224;2023-05-10T18:21:37;4.72;;;4.35;;
38318;SDS011;24121;53.536;10.224;2023-05-10T18:24:03;5.80;;;5.20;;
38318;SDS011;24121;53.536;10.224;2023-05-10T18:26:29;5.93;;;5.38;;
38318;SDS011;24121;53.536;10.224;2023-05-10T18:28:54;5.18;;;4.68;;
38318;SDS011;24121;53.536;10.224;2023-05-10T18:31:19;5.82;;;5.32;;
38318;SDS011;24121;53.536;10.224;2023-05-10T18:33:45;5.45;;;4.95;;
38318;SDS011;24121;53.536;10.224;2023-05-10T18:36:10;5.78;;;5.28;;
38318;SDS011;24121;53.536;10.224;2023-05-10T18:38:35;5.07;;;4.57;;
38318;SDS011;24121;53.536;10.224;2023-05-10T18:41:01;5.18;;;4.75;;
38318;SDS011;24121;53.536;10.224;2023-05-10T18:43:27;5.00;;;4.60;;
38318;SDS011;24121;53.536;10.224;2023-05-10T18:45:52;5.47;;;4.90;;
38318;SDS011;24121;53.536;10.224;2023-05-10T18:48:18;4.78;;;4.38;;
38318;SDS011;24121;53.536;10.224;2023-05-10T18:50:43;5.22;;;4.72;;
38318;SDS011;24121;53.536;10.224;2023-05-10T18:53:08;5.47;;;4.97;;
38318;SDS011;24121;53.536;10.224;2023-05-10T18:55:34;5.43;;;4.95;;
38318;SDS011;24121;53.536;10.224;2023-05-10T18:57:59;5.60;;;5.10;;
38318;SDS011;24121;53.536;10.224;2023-05-10T19:00:24;4.72;;;4.32;;
38318;SDS011;24121;53.536;10.224;2023-05-10T19:02:50;5.05;;;4.65;;
38318;SDS011;24121;53.536;10.224;2023-05-10T19:05:15;5.45;;;4.97;;
38318;SDS011;24121;53.536;10.224;2023-05-10T19:07:41;6.20;;;5.60;;
38318;SDS011;24121;53.536;10.224;2023-05-10T19:10:08;6.78;;;6.18;;
38318;SDS011;24121;53.536;10.224;2023-05-10T19:12:35;6.50;;;5.90;;
38318;SDS011;24121;53.536;10.224;2023-05-10T19:15:01;6.55;;;5.93;;
38318;SDS011;24121;53.536;10.224;2023-05-10T19:17:26;6.32;;;5.72;;
38318;SDS011;24121;53.536;10.224;2023-05-10T19:19:51;6.85;;;6.15;;
38318;SDS011;24121;53.536;10.224;2023-05-10T19:22:17;8.07;;;7.28;;
38318;SDS011;24121;53.536;10.224;2023-05-10T19:24:42;7.65;;;6.93;;
38318;SDS011;24121;53.536;10.224;2023-05-10T19:27:07;7.28;;;6.57;;
38318;SDS011;24121;53.536;10.224;2023-05-10T19:29:33;6.65;;;6.05;;
38318;SDS011;24121;53.536;10.224;2023-05-10T19:31:58;7.05;;;6.10;;
38318;SDS011;24121;53.536;10.224;2023-05-10T19:34:24;5.90;;;5.30;;
38318;SDS011;24121;53.536;10.224;2023-05-10T19:36:49;6.65;;;6.05;;
38318;SDS011;24121;53.536;10.224;2023-05-10T19:39:15;6.90;;;6.20;;
38318;SDS011;24121;53.536;10.224;2023-05-10T19:41:40;6.72;;;6.13;;
38318;SDS011;24121;53.536;10.224;2023-05-10T19:44:05;7.20;;;6.50;;
38318;SDS011;24121;53.536;10.224;2023-05-10T19:46:31;6.60;;;6.00;;
38318;SDS011;24121;53.536;10.224;2023-05-10T19:48:56;6.80;;;5.93;;
38318;SDS011;24121;53.536;10.224;2023-05-10T19:51:22;7.18;;;6.22;;
38318;SDS011;24121;53.536;10.224;2023-05-10T19:53:47;7.65;;;6.95;;
38318;SDS011;24121;53.536;10.224;2023-05-10T19:56:12;9.30;;;8.10;;
38318;SDS011;24121;53.536;10.224;2023-05-10T19:58:38;8.70;;;7.80;;
38318;SDS011;24121;53.536;10.224;2023-05-10T20:01:03;7.82;;;6.57;;
38318;SDS011;24121;53.536;10.224;2023-05-10T20:03:32;8.43;;;7.00;;
38318;SDS011;24121;53.536;10.224;2023-05-10T20:06:01;7.95;;;7.15;;
38318;SDS011;24121;53.536;10.224;2023-05-10T20:08:26;8.20;;;7.40;;
38318;SDS011;24121;53.536;10.224;2023-05-10T20:10:51;8.40;;;7.60;;
38318;SDS011;24121;53.536;10.224;2023-05-10T20:13:17;8.02;;;7.22;;
38318;SDS011;24121;53.536;10.224;2023-05-10T20:15:42;8.35;;;6.97;;
38318;SDS011;24121;53.536;10.224;2023-05-10T20:18:08;8.80;;;7.82;;
38318;SDS011;24121;53.536;10.224;2023-05-10T20:20:33;9.18;;;7.43;;
38318;SDS011;24121;53.536;10.224;2023-05-10T20:22:59;7.35;;;6.57;;
38318;SDS011;24121;53.536;10.224;2023-05-10T20:25:24;8.35;;;7.53;;
38318;SDS011;24121;53.536;10.224;2023-05-10T20:27:49;8.02;;;6.63;;
38318;SDS011;24121;53.536;10.224;2023-05-10T20:30:15;7.43;;;6.53;;
38318;SDS011;24121;53.536;10.224;2023-05-10T20:32:41;6.80;;;6.20;;
38318;SDS011;24121;53.536;10.224;2023-05-10T20:35:07;6.05;;;5.45;;
38318;SDS011;24121;53.536;10.224;2023-05-10T20:37:33;5.25;;;4.75;;
38318;SDS011;24121;53.536;10.224;2023-05-10T20:39:58;6.13;;;5.50;;
38318;SDS011;24121;53.536;10.224;2023-05-10T20:42:24;5.80;;;5.30;;
38318;SDS011;24121;53.536;10.224;2023-05-10T20:44:49;5.60;;;5.10;;
38318;SDS011;24121;53.536;10.224;2023-05-10T20:47:15;6.22;;;5.63;;
38318;SDS011;24121;53.536;10.224;2023-05-10T20:49:40;6.43;;;5.75;;
38318;SDS011;24121;53.536;10.224;2023-05-10T20:52:06;6.15;;;5.50;;
38318;SDS011;24121;53.536;10.224;2023-05-10T20:54:32;6.32;;;5.72;;
38318;SDS011;24121;53.536;10.224;2023-05-10T20:56:57;5.72;;;5.03;;
38318;SDS011;24121;53.536;10.224;2023-05-10T20:59:22;7.40;;;6.70;;
38318;SDS011;24121;53.536;10.224;2023-05-10T21:01:47;7.25;;;6.57;;
38318;SDS011;24121;53.536;10.224;2023-05-10T21:04:13;7.93;;;7.20;;
38318;SDS011;24121;53.536;10.224;2023-05-10T21:06:38;9.20;;;8.40;;
38318;SDS011;24121;53.536;10.224;2023-05-10T21:09:03;11.02;;;9.93;;
38318;SDS011;24121;53.536;10.224;2023-05-10T21:11:29;10.73;;;9.77;;
38318;SDS011;24121;53.536;10.224;2023-05-10T21:13:55;10.30;;;9.40;;
38318;SDS011;24121;53.536;10.224;2023-05-10T21:16:21;11.52;;;10.52;;
38318;SDS011;24121;53.536;10.224;2023-05-10T21:18:46;11.25;;;10.35;;
38318;SDS011;24121;53.536;10.224;2023-05-10T21:21:11;11.57;;;10.57;;
38318;SDS011;24121;53.536;10.224;2023-05-10T21:23:37;12.35;;;11.30;;
38318;SDS011;24121;53.536;10.224;2023-05-10T21:26:02;11.18;;;10.20;;
38318;SDS011;24121;53.536;10.224;2023-05-10T21:28:28;12.55;;;11.38;;
38318;SDS011;24121;53.536;10.224;2023-05-10T21:30:53;12.27;;;11.18;;
38318;SDS011;24121;53.536;10.224;2023-05-10T21:33:18;11.85;;;10.75;;
38318;SDS011;24121;53.536;10.224;2023-05-10T21:35:43;11.20;;;10.20;;
38318;SDS011;24121;53.536;10.224;2023-05-10T21:38:09;12.27;;;11.18;;
38318;SDS011;24121;53.536;10.224;2023-05-10T21:40:35;12.15;;;11.02;;
38318;SDS011;24121;53.536;10.224;2023-05-10T21:43:01;12.40;;;11.30;;
38318;SDS011;24121;53.536;10.224;2023-05-10T21:45:27;12.90;;;11.70;;
38318;SDS011;24121;53.536;10.224;2023-05-10T21:47:55;14.43;;;12.90;;
38318;SDS011;24121;53.536;10.224;2023-05-10T21:50:20;13.75;;;12.45;;
38318;SDS011;24121;53.536;10.224;2023-05-10T21:52:46;14.38;;;12.98;;